sensor_id;sensor_type;location;lat;lon;timestamp;temperature;humidity
28460;DHT22;32528;45.712;9.192;2023-02-01T00:01:56;2.10;94.90
28460;DHT22;32528;45.712;9.192;2023-02-01T00:03:57;2.20;95.00
28460;DHT22;32528;45.712;9.192;2023-02-01T00:05:59;2.20;95.10
28460;DHT22;32528;45.712;9.192;2023-02-01T00:08:00;2.10;95.20
28460;DHT22;32528;45.712;9.192;2023-02-01T00:10:01;2.10;95.30
28460;DHT22;32528;45.712;9.192;2023-02-01T00:12:01;2.00;95.40
28460;DHT22;32528;45.712;9.192;2023-02-01T00:14:03;2.10;95.60
28460;DHT22;32528;45.712;9.192;2023-02-01T00:16:13;2.10;95.10
28460;DHT22;32528;45.712;9.192;2023-02-01T00:18:16;2.10;95.20
28460;DHT22;32528;45.712;9.192;2023-02-01T00:20:17;2.00;95.20
28460;DHT22;32528;45.712;9.192;2023-02-01T00:22:18;2.10;95.40
28460;DHT22;32528;45.712;9.192;2023-02-01T00:24:19;2.00;95.50
28460;DHT22;32528;45.712;9.192;2023-02-01T00:26:25;2.00;95.40
28460;DHT22;32528;45.712;9.192;2023-02-01T00:28:28;2.00;95.40
28460;DHT22;32528;45.712;9.192;2023-02-01T00:30:28;2.10;95.40
28460;DHT22;32528;45.712;9.192;2023-02-01T00:32:29;2.00;95.30
28460;DHT22;32528;45.712;9.192;2023-02-01T00:34:32;2.00;95.30
28460;DHT22;32528;45.712;9.192;2023-02-01T00:36:33;1.90;95.30
28460;DHT22;32528;45.712;9.192;2023-02-01T00:38:37;1.90;95.40
28460;DHT22;32528;45.712;9.192;2023-02-01T00:40:40;1.90;95.50
28460;DHT22;32528;45.712;9.192;2023-02-01T00:42:41;1.90;95.40
28460;DHT22;32528;45.712;9.192;2023-02-01T00:44:41;2.00;95.30
28460;DHT22;32528;45.712;9.192;2023-02-01T00:46:43;1.90;95.30
28460;DHT22;32528;45.712;9.192;2023-02-01T00:48:45;1.90;95.40
28460;DHT22;32528;45.712;9.192;2023-02-01T00:50:46;1.90;95.30
28460;DHT22;32528;45.712;9.192;2023-02-01T00:52:47;1.90;95.40
28460;DHT22;32528;45.712;9.192;2023-02-01T00:54:48;1.90;95.30
28460;DHT22;32528;45.712;9.192;2023-02-01T00:56:48;1.90;95.30
28460;DHT22;32528;45.712;9.192;2023-02-01T00:58:49;1.90;95.30
28460;DHT22;32528;45.712;9.192;2023-02-01T01:00:50;1.90;95.40
28460;DHT22;32528;45.712;9.192;2023-02-01T01:02:51;1.80;95.40
28460;DHT22;32528;45.712;9.192;2023-02-01T01:04:51;1.90;95.40
28460;DHT22;32528;45.712;9.192;2023-02-01T01:06:52;1.80;95.40
28460;DHT22;32528;45.712;9.192;2023-02-01T01:08:54;1.80;95.40
28460;DHT22;32528;45.712;9.192;2023-02-01T01:10:55;1.80;95.60
28460;DHT22;32528;45.712;9.192;2023-02-01T01:12:58;1.70;95.50
28460;DHT22;32528;45.712;9.192;2023-02-01T01:14:59;1.70;95.60
28460;DHT22;32528;45.712;9.192;2023-02-01T01:16:59;1.80;95.60
28460;DHT22;32528;45.712;9.192;2023-02-01T01:19:00;1.70;95.40
28460;DHT22;32528;45.712;9.192;2023-02-01T01:21:03;1.80;95.40
28460;DHT22;32528;45.712;9.192;2023-02-01T01:23:07;1.80;95.70
28460;DHT22;32528;45.712;9.192;2023-02-01T01:25:08;1.80;95.50
28460;DHT22;32528;45.712;9.192;2023-02-01T01:27:08;1.80;95.50
28460;DHT22;32528;45.712;9.192;2023-02-01T01:29:09;1.80;95.40
28460;DHT22;32528;45.712;9.192;2023-02-01T01:31:12;1.80;95.30
28460;DHT22;32528;45.712;9.192;2023-02-01T01:33:13;1.80;95.20
28460;DHT22;32528;45.712;9.192;2023-02-01T01:35:14;1.80;95.10
28460;DHT22;32528;45.712;9.192;2023-02-01T01:37:17;1.80;95.10
28460;DHT22;32528;45.712;9.192;2023-02-01T01:39:17;1.90;95.10
28460;DHT22;32528;45.712;9.192;2023-02-01T01:41:24;1.90;95.20
28460;DHT22;32528;45.712;9.192;2023-02-01T01:45:51;1.90;95.10
28460;DHT22;32528;45.712;9.192;2023-02-01T01:47:58;1.90;95.00
28460;DHT22;32528;45.712;9.192;2023-02-01T01:50:01;1.90;95.00
28460;DHT22;32528;45.712;9.192;2023-02-01T01:52:03;1.90;95.10
28460;DHT22;32528;45.712;9.192;2023-02-01T01:54:29;1.80;95.20
28460;DHT22;32528;45.712;9.192;2023-02-01T01:56:33;1.90;95.10
28460;DHT22;32528;45.712;9.192;2023-02-01T01:58:34;1.90;95.20
28460;DHT22;32528;45.712;9.192;2023-02-01T02:00:36;1.80;95.20
28460;DHT22;32528;45.712;9.192;2023-02-01T02:02:39;1.90;95.10
28460;DHT22;32528;45.712;9.192;2023-02-01T02:04:40;1.90;95.10
28460;DHT22;32528;45.712;9.192;2023-02-01T02:07:04;1.90;95.00
28460;DHT22;32528;45.712;9.192;2023-02-01T02:09:03;1.90;95.30
28460;DHT22;32528;45.712;9.192;2023-02-01T02:11:04;1.80;95.40
28460;DHT22;32528;45.712;9.192;2023-02-01T02:13:05;1.70;95.30
28460;DHT22;32528;45.712;9.192;2023-02-01T02:15:10;1.80;95.40
28460;DHT22;32528;45.712;9.192;2023-02-01T02:22:32;1.70;95.40
28460;DHT22;32528;45.712;9.192;2023-02-01T02:26:41;1.60;95.60
28460;DHT22;32528;45.712;9.192;2023-02-01T02:38:33;1.50;95.70
28460;DHT22;32528;45.712;9.192;2023-02-01T02:52:53;1.40;95.90
28460;DHT22;32528;45.712;9.192;2023-02-01T02:55:14;1.30;96.00
28460;DHT22;32528;45.712;9.192;2023-02-01T02:57:20;1.30;96.00
28460;DHT22;32528;45.712;9.192;2023-02-01T02:59:43;1.30;96.10
28460;DHT22;32528;45.712;9.192;2023-02-01T03:02:06;1.30;96.10
28460;DHT22;32528;45.712;9.192;2023-02-01T03:04:26;1.30;96.00
28460;DHT22;32528;45.712;9.192;2023-02-01T03:06:27;1.30;96.30
28460;DHT22;32528;45.712;9.192;2023-02-01T03:08:29;1.30;96.20
28460;DHT22;32528;45.712;9.192;2023-02-01T03:12:40;1.40;96.10
28460;DHT22;32528;45.712;9.192;2023-02-01T03:15:06;1.50;96.00
28460;DHT22;32528;45.712;9.192;2023-02-01T03:17:14;1.50;96.10
28460;DHT22;32528;45.712;9.192;2023-02-01T03:19:27;1.40;95.90
28460;DHT22;32528;45.712;9.192;2023-02-01T03:21:43;1.40;95.80
28460;DHT22;32528;45.712;9.192;2023-02-01T03:23:47;1.40;95.90
28460;DHT22;32528;45.712;9.192;2023-02-01T03:25:50;1.40;95.90
28460;DHT22;32528;45.712;9.192;2023-02-01T03:28:04;1.40;96.00
28460;DHT22;32528;45.712;9.192;2023-02-01T03:30:26;1.40;96.00
28460;DHT22;32528;45.712;9.192;2023-02-01T03:32:27;1.30;96.00
28460;DHT22;32528;45.712;9.192;2023-02-01T03:34:28;1.40;96.00
28460;DHT22;32528;45.712;9.192;2023-02-01T03:36:35;1.30;95.80
28460;DHT22;32528;45.712;9.192;2023-02-01T03:38:48;1.30;95.90
28460;DHT22;32528;45.712;9.192;2023-02-01T03:40:57;1.30;95.80
28460;DHT22;32528;45.712;9.192;2023-02-01T03:43:03;1.30;95.90
28460;DHT22;32528;45.712;9.192;2023-02-01T03:45:13;1.30;96.00
28460;DHT22;32528;45.712;9.192;2023-02-01T03:47:18;1.20;96.20
28460;DHT22;32528;45.712;9.192;2023-02-01T03:49:35;1.20;96.10
28460;DHT22;32528;45.712;9.192;2023-02-01T03:51:40;1.20;96.10
28460;DHT22;32528;45.712;9.192;2023-02-01T03:53:42;1.20;96.20
28460;DHT22;32528;45.712;9.192;2023-02-01T03:55:47;1.10;96.10
28460;DHT22;32528;45.712;9.192;2023-02-01T03:58:19;1.10;96.00
28460;DHT22;32528;45.712;9.192;2023-02-01T04:00:24;1.10;96.20
28460;DHT22;32528;45.712;9.192;2023-02-01T04:02:25;1.10;96.30
28460;DHT22;32528;45.712;9.192;2023-02-01T04:04:26;1.10;96.40
28460;DHT22;32528;45.712;9.192;2023-02-01T04:06:29;1.00;96.50
28460;DHT22;32528;45.712;9.192;2023-02-01T04:08:34;1.00;96.40
28460;DHT22;32528;45.712;9.192;2023-02-01T04:10:35;1.10;96.40
28460;DHT22;32528;45.712;9.192;2023-02-01T04:12:36;1.10;96.30
28460;DHT22;32528;45.712;9.192;2023-02-01T04:14:37;1.10;96.10
28460;DHT22;32528;45.712;9.192;2023-02-01T04:16:37;1.00;96.10
28460;DHT22;32528;45.712;9.192;2023-02-01T04:18:38;1.00;96.20
28460;DHT22;32528;45.712;9.192;2023-02-01T04:20:39;1.00;96.30
28460;DHT22;32528;45.712;9.192;2023-02-01T04:22:40;1.00;96.20
28460;DHT22;32528;45.712;9.192;2023-02-01T04:24:41;1.00;96.30
28460;DHT22;32528;45.712;9.192;2023-02-01T04:26:42;1.00;96.20
28460;DHT22;32528;45.712;9.192;2023-02-01T04:28:44;0.90;96.40
28460;DHT22;32528;45.712;9.192;2023-02-01T04:30:48;0.90;96.60
28460;DHT22;32528;45.712;9.192;2023-02-01T04:32:49;0.80;96.80
28460;DHT22;32528;45.712;9.192;2023-02-01T04:34:49;0.80;96.70
28460;DHT22;32528;45.712;9.192;2023-02-01T04:36:51;0.90;96.60
28460;DHT22;32528;45.712;9.192;2023-02-01T04:38:52;1.00;96.70
28460;DHT22;32528;45.712;9.192;2023-02-01T04:40:53;1.00;96.40
28460;DHT22;32528;45.712;9.192;2023-02-01T04:42:53;0.90;96.40
28460;DHT22;32528;45.712;9.192;2023-02-01T04:44:55;1.00;96.00
28460;DHT22;32528;45.712;9.192;2023-02-01T04:46:55;1.10;96.20
28460;DHT22;32528;45.712;9.192;2023-02-01T04:48:56;1.00;96.50
28460;DHT22;32528;45.712;9.192;2023-02-01T04:50:57;1.00;96.40
28460;DHT22;32528;45.712;9.192;2023-02-01T04:52:58;1.00;96.70
28460;DHT22;32528;45.712;9.192;2023-02-01T04:54:58;1.00;96.30
28460;DHT22;32528;45.712;9.192;2023-02-01T04:57:00;1.00;96.40
28460;DHT22;32528;45.712;9.192;2023-02-01T04:59:01;0.90;96.40
28460;DHT22;32528;45.712;9.192;2023-02-01T05:01:06;1.00;96.50
28460;DHT22;32528;45.712;9.192;2023-02-01T05:03:06;1.00;96.60
28460;DHT22;32528;45.712;9.192;2023-02-01T05:05:07;1.00;96.80
28460;DHT22;32528;45.712;9.192;2023-02-01T05:07:08;1.00;96.90
28460;DHT22;32528;45.712;9.192;2023-02-01T05:09:08;0.90;97.00
28460;DHT22;32528;45.712;9.192;2023-02-01T05:11:09;0.90;97.00
28460;DHT22;32528;45.712;9.192;2023-02-01T05:13:33;0.90;96.80
28460;DHT22;32528;45.712;9.192;2023-02-01T05:15:50;1.00;96.90
28460;DHT22;32528;45.712;9.192;2023-02-01T05:17:51;1.00;96.60
28460;DHT22;32528;45.712;9.192;2023-02-01T05:19:52;1.10;96.50
28460;DHT22;32528;45.712;9.192;2023-02-01T05:21:52;1.10;96.40
28460;DHT22;32528;45.712;9.192;2023-02-01T05:23:53;1.00;96.30
28460;DHT22;32528;45.712;9.192;2023-02-01T05:26:12;1.00;96.50
28460;DHT22;32528;45.712;9.192;2023-02-01T05:28:13;1.00;96.90
28460;DHT22;32528;45.712;9.192;2023-02-01T05:30:14;1.00;96.70
28460;DHT22;32528;45.712;9.192;2023-02-01T05:32:15;1.00;96.70
28460;DHT22;32528;45.712;9.192;2023-02-01T05:34:16;1.00;96.60
28460;DHT22;32528;45.712;9.192;2023-02-01T05:36:17;1.00;96.80
28460;DHT22;32528;45.712;9.192;2023-02-01T05:38:18;1.00;97.10
28460;DHT22;32528;45.712;9.192;2023-02-01T05:40:19;1.00;97.00
28460;DHT22;32528;45.712;9.192;2023-02-01T05:42:19;1.10;96.90
28460;DHT22;32528;45.712;9.192;2023-02-01T05:44:20;1.10;96.90
28460;DHT22;32528;45.712;9.192;2023-02-01T05:46:21;1.10;96.80
28460;DHT22;32528;45.712;9.192;2023-02-01T05:48:22;1.10;96.80
28460;DHT22;32528;45.712;9.192;2023-02-01T05:50:23;1.10;96.80
28460;DHT22;32528;45.712;9.192;2023-02-01T05:52:31;1.10;96.90
28460;DHT22;32528;45.712;9.192;2023-02-01T05:54:31;1.10;96.90
28460;DHT22;32528;45.712;9.192;2023-02-01T05:56:33;1.20;96.90
28460;DHT22;32528;45.712;9.192;2023-02-01T05:58:34;1.20;96.80
28460;DHT22;32528;45.712;9.192;2023-02-01T06:00:35;1.30;96.70
28460;DHT22;32528;45.712;9.192;2023-02-01T06:02:36;1.30;96.60
28460;DHT22;32528;45.712;9.192;2023-02-01T06:04:36;1.30;96.60
28460;DHT22;32528;45.712;9.192;2023-02-01T06:06:37;1.30;96.50
28460;DHT22;32528;45.712;9.192;2023-02-01T06:08:38;1.30;96.50
28460;DHT22;32528;45.712;9.192;2023-02-01T06:10:40;1.30;96.50
28460;DHT22;32528;45.712;9.192;2023-02-01T06:12:41;1.30;96.50
28460;DHT22;32528;45.712;9.192;2023-02-01T06:14:42;1.30;96.50
28460;DHT22;32528;45.712;9.192;2023-02-01T06:16:44;1.30;96.60
28460;DHT22;32528;45.712;9.192;2023-02-01T06:18:47;1.30;96.60
28460;DHT22;32528;45.712;9.192;2023-02-01T06:20:58;1.30;96.60
28460;DHT22;32528;45.712;9.192;2023-02-01T06:23:01;1.40;96.60
28460;DHT22;32528;45.712;9.192;2023-02-01T06:25:04;1.30;96.60
28460;DHT22;32528;45.712;9.192;2023-02-01T06:27:05;1.30;96.50
28460;DHT22;32528;45.712;9.192;2023-02-01T06:29:14;1.30;96.50
28460;DHT22;32528;45.712;9.192;2023-02-01T06:31:16;1.30;96.90
28460;DHT22;32528;45.712;9.192;2023-02-01T06:33:17;1.30;96.70
28460;DHT22;32528;45.712;9.192;2023-02-01T06:35:18;1.40;96.60
28460;DHT22;32528;45.712;9.192;2023-02-01T06:37:19;1.30;96.50
28460;DHT22;32528;45.712;9.192;2023-02-01T06:39:20;1.40;96.60
28460;DHT22;32528;45.712;9.192;2023-02-01T06:41:23;1.40;96.60
28460;DHT22;32528;45.712;9.192;2023-02-01T06:43:25;1.40;96.70
28460;DHT22;32528;45.712;9.192;2023-02-01T06:45:26;1.50;96.60
28460;DHT22;32528;45.712;9.192;2023-02-01T06:47:27;1.50;96.50
28460;DHT22;32528;45.712;9.192;2023-02-01T06:49:27;1.50;96.40
28460;DHT22;32528;45.712;9.192;2023-02-01T06:51:29;1.50;96.30
28460;DHT22;32528;45.712;9.192;2023-02-01T06:53:30;1.50;96.30
28460;DHT22;32528;45.712;9.192;2023-02-01T06:55:32;1.60;96.40
28460;DHT22;32528;45.712;9.192;2023-02-01T06:57:33;1.60;96.30
28460;DHT22;32528;45.712;9.192;2023-02-01T06:59:37;1.60;96.20
28460;DHT22;32528;45.712;9.192;2023-02-01T07:01:38;1.60;96.10
28460;DHT22;32528;45.712;9.192;2023-02-01T07:03:39;1.60;96.20
28460;DHT22;32528;45.712;9.192;2023-02-01T07:05:40;1.60;96.10
28460;DHT22;32528;45.712;9.192;2023-02-01T07:07:40;1.60;96.00
28460;DHT22;32528;45.712;9.192;2023-02-01T07:09:41;1.60;95.90
28460;DHT22;32528;45.712;9.192;2023-02-01T07:11:42;1.70;95.90
28460;DHT22;32528;45.712;9.192;2023-02-01T07:13:44;1.70;95.90
28460;DHT22;32528;45.712;9.192;2023-02-01T07:15:46;1.70;95.80
28460;DHT22;32528;45.712;9.192;2023-02-01T07:17:49;1.70;95.70
28460;DHT22;32528;45.712;9.192;2023-02-01T07:19:50;1.70;95.80
28460;DHT22;32528;45.712;9.192;2023-02-01T07:21:51;1.80;95.70
28460;DHT22;32528;45.712;9.192;2023-02-01T07:23:51;1.80;95.60
28460;DHT22;32528;45.712;9.192;2023-02-01T07:26:01;1.90;95.50
28460;DHT22;32528;45.712;9.192;2023-02-01T07:28:03;1.90;95.50
28460;DHT22;32528;45.712;9.192;2023-02-01T07:30:05;1.90;95.60
28460;DHT22;32528;45.712;9.192;2023-02-01T07:32:06;2.00;95.50
28460;DHT22;32528;45.712;9.192;2023-02-01T07:34:06;1.90;95.50
28460;DHT22;32528;45.712;9.192;2023-02-01T07:36:12;1.90;95.70
28460;DHT22;32528;45.712;9.192;2023-02-01T07:38:13;2.00;95.70
28460;DHT22;32528;45.712;9.192;2023-02-01T07:40:14;2.00;95.70
28460;DHT22;32528;45.712;9.192;2023-02-01T07:42:16;2.00;95.70
28460;DHT22;32528;45.712;9.192;2023-02-01T07:44:16;2.10;95.80
28460;DHT22;32528;45.712;9.192;2023-02-01T07:46:23;2.20;95.70
28460;DHT22;32528;45.712;9.192;2023-02-01T07:48:24;2.30;95.50
28460;DHT22;32528;45.712;9.192;2023-02-01T07:50:27;2.40;95.50
28460;DHT22;32528;45.712;9.192;2023-02-01T07:52:28;2.50;95.40
28460;DHT22;32528;45.712;9.192;2023-02-01T07:54:29;2.50;95.30
28460;DHT22;32528;45.712;9.192;2023-02-01T07:56:30;2.60;95.20
28460;DHT22;32528;45.712;9.192;2023-02-01T07:58:31;2.70;95.10
28460;DHT22;32528;45.712;9.192;2023-02-01T08:00:31;2.80;95.30
28460;DHT22;32528;45.712;9.192;2023-02-01T08:02:51;2.80;95.40
28460;DHT22;32528;45.712;9.192;2023-02-01T08:04:52;3.00;95.30
28460;DHT22;32528;45.712;9.192;2023-02-01T08:06:54;3.00;95.20
28460;DHT22;32528;45.712;9.192;2023-02-01T08:08:55;3.20;95.00
28460;DHT22;32528;45.712;9.192;2023-02-01T08:10:58;3.30;94.80
28460;DHT22;32528;45.712;9.192;2023-02-01T08:13:00;3.40;94.70
28460;DHT22;32528;45.712;9.192;2023-02-01T08:15:01;3.50;94.60
28460;DHT22;32528;45.712;9.192;2023-02-01T08:17:02;3.70;94.70
28460;DHT22;32528;45.712;9.192;2023-02-01T08:19:02;3.80;94.50
28460;DHT22;32528;45.712;9.192;2023-02-01T08:23:08;3.90;94.40
28460;DHT22;32528;45.712;9.192;2023-02-01T08:25:09;4.10;94.50
28460;DHT22;32528;45.712;9.192;2023-02-01T08:27:10;4.10;94.50
28460;DHT22;32528;45.712;9.192;2023-02-01T08:29:11;4.20;94.40
28460;DHT22;32528;45.712;9.192;2023-02-01T08:31:16;4.30;94.30
28460;DHT22;32528;45.712;9.192;2023-02-01T08:33:18;4.40;94.30
28460;DHT22;32528;45.712;9.192;2023-02-01T08:35:19;4.60;94.40
28460;DHT22;32528;45.712;9.192;2023-02-01T08:37:19;4.70;94.30
28460;DHT22;32528;45.712;9.192;2023-02-01T08:39:20;4.80;94.00
28460;DHT22;32528;45.712;9.192;2023-02-01T08:41:27;4.90;93.60
28460;DHT22;32528;45.712;9.192;2023-02-01T08:43:29;5.10;93.40
28460;DHT22;32528;45.712;9.192;2023-02-01T08:45:30;5.20;93.30
28460;DHT22;32528;45.712;9.192;2023-02-01T08:47:31;5.30;93.10
28460;DHT22;32528;45.712;9.192;2023-02-01T08:49:31;5.40;92.90
28460;DHT22;32528;45.712;9.192;2023-02-01T08:51:32;5.50;92.80
28460;DHT22;32528;45.712;9.192;2023-02-01T08:53:34;5.70;92.80
28460;DHT22;32528;45.712;9.192;2023-02-01T08:55:36;5.90;92.90
28460;DHT22;32528;45.712;9.192;2023-02-01T08:57:37;6.00;92.80
28460;DHT22;32528;45.712;9.192;2023-02-01T08:59:38;6.10;92.70
28460;DHT22;32528;45.712;9.192;2023-02-01T09:01:38;6.20;92.50
28460;DHT22;32528;45.712;9.192;2023-02-01T09:03:40;6.30;92.30
28460;DHT22;32528;45.712;9.192;2023-02-01T09:05:41;6.40;91.80
28460;DHT22;32528;45.712;9.192;2023-02-01T09:07:42;6.50;92.10
28460;DHT22;32528;45.712;9.192;2023-02-01T09:09:44;6.60;91.70
28460;DHT22;32528;45.712;9.192;2023-02-01T09:11:44;6.70;91.40
28460;DHT22;32528;45.712;9.192;2023-02-01T09:13:46;6.90;91.40
28460;DHT22;32528;45.712;9.192;2023-02-01T09:15:47;7.00;91.00
28460;DHT22;32528;45.712;9.192;2023-02-01T09:17:50;7.20;90.50
28460;DHT22;32528;45.712;9.192;2023-02-01T09:19:51;7.30;89.50
28460;DHT22;32528;45.712;9.192;2023-02-01T09:21:52;7.40;88.70
28460;DHT22;32528;45.712;9.192;2023-02-01T09:23:53;7.50;86.80
28460;DHT22;32528;45.712;9.192;2023-02-01T09:25:54;7.60;88.60
28460;DHT22;32528;45.712;9.192;2023-02-01T09:27:54;7.70;87.70
28460;DHT22;32528;45.712;9.192;2023-02-01T09:29:55;7.80;87.00
28460;DHT22;32528;45.712;9.192;2023-02-01T09:31:56;8.00;87.50
28460;DHT22;32528;45.712;9.192;2023-02-01T09:33:57;8.10;86.90
28460;DHT22;32528;45.712;9.192;2023-02-01T09:36:00;8.20;84.90
28460;DHT22;32528;45.712;9.192;2023-02-01T09:38:01;8.30;82.70
28460;DHT22;32528;45.712;9.192;2023-02-01T09:40:03;8.40;83.70
28460;DHT22;32528;45.712;9.192;2023-02-01T09:44:46;8.80;76.60
28460;DHT22;32528;45.712;9.192;2023-02-01T09:46:54;9.10;75.80
28460;DHT22;32528;45.712;9.192;2023-02-01T09:48:57;9.30;69.70
28460;DHT22;32528;45.712;9.192;2023-02-01T09:51:00;9.50;67.70
28460;DHT22;32528;45.712;9.192;2023-02-01T09:53:46;9.60;67.60
28460;DHT22;32528;45.712;9.192;2023-02-01T09:55:30;9.70;67.00
28460;DHT22;32528;45.712;9.192;2023-02-01T09:57:55;9.80;68.90
28460;DHT22;32528;45.712;9.192;2023-02-01T10:00:03;9.80;68.30
28460;DHT22;32528;45.712;9.192;2023-02-01T10:02:23;9.90;68.60
28460;DHT22;32528;45.712;9.192;2023-02-01T10:04:24;9.90;68.70
28460;DHT22;32528;45.712;9.192;2023-02-01T10:10:52;10.00;67.60
28460;DHT22;32528;45.712;9.192;2023-02-01T10:23:58;10.40;66.00
28460;DHT22;32528;45.712;9.192;2023-02-01T10:26:08;10.50;66.80
28460;DHT22;32528;45.712;9.192;2023-02-01T10:28:14;10.50;65.00
28460;DHT22;32528;45.712;9.192;2023-02-01T10:30:18;10.60;64.50
28460;DHT22;32528;45.712;9.192;2023-02-01T10:32:21;10.80;65.10
28460;DHT22;32528;45.712;9.192;2023-02-01T10:34:26;10.80;65.50
28460;DHT22;32528;45.712;9.192;2023-02-01T10:36:40;10.80;65.40
28460;DHT22;32528;45.712;9.192;2023-02-01T10:38:42;10.90;66.30
28460;DHT22;32528;45.712;9.192;2023-02-01T10:40:43;10.80;67.00
28460;DHT22;32528;45.712;9.192;2023-02-01T10:42:44;10.90;67.80
28460;DHT22;32528;45.712;9.192;2023-02-01T10:44:45;10.90;69.60
28460;DHT22;32528;45.712;9.192;2023-02-01T10:46:49;10.90;70.10
28460;DHT22;32528;45.712;9.192;2023-02-01T10:48:50;10.90;70.50
28460;DHT22;32528;45.712;9.192;2023-02-01T10:51:02;10.90;71.40
28460;DHT22;32528;45.712;9.192;2023-02-01T10:53:15;11.00;72.80
28460;DHT22;32528;45.712;9.192;2023-02-01T10:57:29;11.20;73.70
28460;DHT22;32528;45.712;9.192;2023-02-01T10:59:32;11.30;75.70
28460;DHT22;32528;45.712;9.192;2023-02-01T11:01:39;11.30;75.90
28460;DHT22;32528;45.712;9.192;2023-02-01T11:05:44;11.30;74.80
28460;DHT22;32528;45.712;9.192;2023-02-01T11:07:46;11.40;74.70
28460;DHT22;32528;45.712;9.192;2023-02-01T11:09:53;11.40;74.60
28460;DHT22;32528;45.712;9.192;2023-02-01T11:11:59;11.50;74.60
28460;DHT22;32528;45.712;9.192;2023-02-01T11:14:01;11.50;74.50
28460;DHT22;32528;45.712;9.192;2023-02-01T11:16:02;11.60;75.00
28460;DHT22;32528;45.712;9.192;2023-02-01T11:18:17;11.60;76.00
28460;DHT22;32528;45.712;9.192;2023-02-01T11:20:20;11.60;76.40
28460;DHT22;32528;45.712;9.192;2023-02-01T11:22:21;11.60;77.00
28460;DHT22;32528;45.712;9.192;2023-02-01T11:24:25;11.70;77.30
28460;DHT22;32528;45.712;9.192;2023-02-01T11:26:28;11.70;78.00
28460;DHT22;32528;45.712;9.192;2023-02-01T11:28:30;11.80;78.60
28460;DHT22;32528;45.712;9.192;2023-02-01T11:30:32;11.80;79.00
28460;DHT22;32528;45.712;9.192;2023-02-01T11:32:34;11.80;79.50
28460;DHT22;32528;45.712;9.192;2023-02-01T11:34:38;11.70;80.10
28460;DHT22;32528;45.712;9.192;2023-02-01T11:36:40;11.80;80.50
28460;DHT22;32528;45.712;9.192;2023-02-01T11:38:45;11.90;79.90
28460;DHT22;32528;45.712;9.192;2023-02-01T11:40:46;11.90;79.80
28460;DHT22;32528;45.712;9.192;2023-02-01T11:43:00;12.00;79.60
28460;DHT22;32528;45.712;9.192;2023-02-01T11:47:38;12.00;79.00
28460;DHT22;32528;45.712;9.192;2023-02-01T11:49:39;12.00;78.60
28460;DHT22;32528;45.712;9.192;2023-02-01T11:54:06;12.10;80.00
28460;DHT22;32528;45.712;9.192;2023-02-01T11:56:17;12.00;79.10
28460;DHT22;32528;45.712;9.192;2023-02-01T12:00:51;12.10;79.50
28460;DHT22;32528;45.712;9.192;2023-02-01T12:07:42;12.10;80.70
28460;DHT22;32528;45.712;9.192;2023-02-01T12:11:46;12.20;81.20
28460;DHT22;32528;45.712;9.192;2023-02-01T12:13:54;12.20;79.20
28460;DHT22;32528;45.712;9.192;2023-02-01T12:24:48;12.40;79.80
28460;DHT22;32528;45.712;9.192;2023-02-01T12:27:34;12.40;78.70
28460;DHT22;32528;45.712;9.192;2023-02-01T12:31:27;12.50;78.60
28460;DHT22;32528;45.712;9.192;2023-02-01T12:38:03;12.50;79.60
28460;DHT22;32528;45.712;9.192;2023-02-01T12:40:27;12.50;79.00
28460;DHT22;32528;45.712;9.192;2023-02-01T12:42:30;12.50;79.40
28460;DHT22;32528;45.712;9.192;2023-02-01T12:46:43;12.60;78.10
28460;DHT22;32528;45.712;9.192;2023-02-01T12:48:55;12.60;79.00
28460;DHT22;32528;45.712;9.192;2023-02-01T12:50:57;12.60;79.60
28460;DHT22;32528;45.712;9.192;2023-02-01T12:53:14;12.70;80.10
28460;DHT22;32528;45.712;9.192;2023-02-01T12:57:23;12.70;79.10
28460;DHT22;32528;45.712;9.192;2023-02-01T13:01:39;12.70;79.50
28460;DHT22;32528;45.712;9.192;2023-02-01T13:03:43;12.80;79.40
28460;DHT22;32528;45.712;9.192;2023-02-01T13:05:56;12.80;80.20
28460;DHT22;32528;45.712;9.192;2023-02-01T13:08:06;12.90;80.90
28460;DHT22;32528;45.712;9.192;2023-02-01T13:12:24;12.90;79.30
28460;DHT22;32528;45.712;9.192;2023-02-01T13:14:33;12.90;78.40
28460;DHT22;32528;45.712;9.192;2023-02-01T13:16:41;12.90;79.20
28460;DHT22;32528;45.712;9.192;2023-02-01T13:18:43;12.90;79.70
28460;DHT22;32528;45.712;9.192;2023-02-01T13:23:04;13.00;79.30
28460;DHT22;32528;45.712;9.192;2023-02-01T13:25:28;12.90;79.40
28460;DHT22;32528;45.712;9.192;2023-02-01T13:27:26;13.00;79.40
28460;DHT22;32528;45.712;9.192;2023-02-01T13:29:30;13.00;80.20
28460;DHT22;32528;45.712;9.192;2023-02-01T13:44:48;13.10;80.00
28460;DHT22;32528;45.712;9.192;2023-02-01T13:46:50;13.20;78.90
28460;DHT22;32528;45.712;9.192;2023-02-01T13:49:00;13.20;78.60
28460;DHT22;32528;45.712;9.192;2023-02-01T13:51:02;13.20;77.80
28460;DHT22;32528;45.712;9.192;2023-02-01T13:57:32;13.20;78.60
28460;DHT22;32528;45.712;9.192;2023-02-01T14:01:41;13.10;78.60
28460;DHT22;32528;45.712;9.192;2023-02-01T14:03:42;13.10;79.20
28460;DHT22;32528;45.712;9.192;2023-02-01T14:12:44;13.20;77.00
28460;DHT22;32528;45.712;9.192;2023-02-01T14:14:45;13.10;77.00
28460;DHT22;32528;45.712;9.192;2023-02-01T14:18:57;13.20;76.50
28460;DHT22;32528;45.712;9.192;2023-02-01T14:23:16;13.20;75.00
28460;DHT22;32528;45.712;9.192;2023-02-01T14:25:18;13.10;73.80
28460;DHT22;32528;45.712;9.192;2023-02-01T14:27:20;13.10;73.40
28460;DHT22;32528;45.712;9.192;2023-02-01T14:29:22;13.00;73.10
28460;DHT22;32528;45.712;9.192;2023-02-01T14:33:26;13.10;72.30
28460;DHT22;32528;45.712;9.192;2023-02-01T14:35:27;13.10;71.40
28460;DHT22;32528;45.712;9.192;2023-02-01T14:37:29;13.10;70.70
28460;DHT22;32528;45.712;9.192;2023-02-01T14:41:46;13.10;69.90
28460;DHT22;32528;45.712;9.192;2023-02-01T14:43:51;13.10;70.20
28460;DHT22;32528;45.712;9.192;2023-02-01T14:45:52;13.10;69.60
28460;DHT22;32528;45.712;9.192;2023-02-01T14:52:09;13.00;69.60
28460;DHT22;32528;45.712;9.192;2023-02-01T14:54:12;13.00;69.30
28460;DHT22;32528;45.712;9.192;2023-02-01T14:56:15;12.90;69.60
28460;DHT22;32528;45.712;9.192;2023-02-01T15:00:26;13.00;69.00
28460;DHT22;32528;45.712;9.192;2023-02-01T15:02:27;12.90;68.20
28460;DHT22;32528;45.712;9.192;2023-02-01T15:04:30;12.90;68.20
28460;DHT22;32528;45.712;9.192;2023-02-01T15:06:43;12.90;68.30
28460;DHT22;32528;45.712;9.192;2023-02-01T15:08:44;12.80;68.00
28460;DHT22;32528;45.712;9.192;2023-02-01T15:10:46;12.80;68.00
28460;DHT22;32528;45.712;9.192;2023-02-01T15:12:48;12.80;68.30
28460;DHT22;32528;45.712;9.192;2023-02-01T15:17:29;12.70;68.60
28460;DHT22;32528;45.712;9.192;2023-02-01T15:19:39;12.70;68.90
28460;DHT22;32528;45.712;9.192;2023-02-01T15:21:53;12.60;69.00
28460;DHT22;32528;45.712;9.192;2023-02-01T15:24:09;12.60;69.50
28460;DHT22;32528;45.712;9.192;2023-02-01T15:26:10;12.60;70.10
28460;DHT22;32528;45.712;9.192;2023-02-01T15:28:14;12.60;70.00
28460;DHT22;32528;45.712;9.192;2023-02-01T15:30:16;12.50;70.30
28460;DHT22;32528;45.712;9.192;2023-02-01T15:32:38;12.50;70.30
28460;DHT22;32528;45.712;9.192;2023-02-01T15:34:49;12.50;71.40
28460;DHT22;32528;45.712;9.192;2023-02-01T15:36:50;12.50;70.90